x

Buoy E01 - Central Maine Shelf (44032) Wave Buoy

5:04pm - Tue 23rd May 2017 All times are EDT. -4 hours from GMT.

  • Sig Wave height 2.6ft
  • Peak Period 6s
  • Wind
    9mph, 11mph gusts
  • Sea Temp 51°f
  • Air Temp 51°f
  • Sea Pressure 1008.7mb
  • Buoy E01 - Central Maine Shelf
  • Buoy E01 - Central Maine Shelf

More Historic Weather Station data

Upgrade to MSW Pro to gain access to the past 30 days of data for over 8000 Wavebouys and Weather Stations around the globe.

Join Pro

Comparision Forecast

View Surf forecast
   
Tue 05/23 5:04pm 2.5ft 6s 9 11 mph 1008.7mb 51f 51f
4:04pm 2.5ft 6s 9 11 mph 1009mb 50f 51f
3:04pm 2.5ft 6s 9 9 mph 1009.5mb 50f 52f
2:04pm 2.5ft 6s 11 13 mph 1010.2mb 51f 51f
1:04pm 2.5ft 6s 9 9 mph 1011.3mb 51f 51f
12:04pm 2.5ft 6s 4 7 mph 1011.7mb 50f 50f
11:04am 2.5ft 5s 4 4 mph 1011.8mb 49f 49f
10:04am 2.5ft 5s 4 7 mph 1012.5mb 49f 48f
9:04am 2.5ft 5s 7 9 mph 1012.5mb 49f 47f
8:04am 2.5ft 5s 7 9 mph 1012.7mb 48f 47f
7:04am 2.5ft 5s 7 9 mph 1012.7mb 48f 48f
6:04am 2.5ft 4s 4 7 mph 1013mb 48f 48f
5:04am 2ft 4s 2 4 mph 1012.8mb 48f 48f
4:04am 2.5ft 4s 2 4 mph 1013.3mb 48f 48f
3:04am 2ft 4s 7 9 mph 1013.8mb 48f 48f
2:04am 2ft 4s 11 13 mph 1014.4mb 47f 47f
1:04am 2.5ft 5s 11 13 mph 1015.2mb 48f 47f
12:04am 2.5ft 5s 16 18 mph 1015.9mb 48f 47f
Mon 05/22 11:04pm 2.5ft 5s 13 18 mph 1016.5mb 48f 47f
10:04pm 2.5ft 5s 13 18 mph 1017.3mb 48f 47f
9:04pm 2.5ft 5s 13 18 mph 1017.9mb 48f 47f
8:04pm 3ft 4s 13 16 mph 1018.2mb 48f 47f
7:04pm 2.5ft 3s 18 22 mph 1018.9mb 49f 47f
6:04pm 1.6ft 3s 18 22 mph 1018.7mb 50f 50f
5:04pm 1.6ft 3s 16 18 mph 1019.3mb 50f 50f
4:04pm 1.3ft 3s 11 13 mph 1020mb 50f 50f
3:04pm 1ft 2s 13 13 mph 1020.7mb 50f 50f
2:04pm 1ft 3s 9 11 mph 1020.9mb 49f 50f
1:04pm 1ft 4s 11 13 mph 1021.9mb 50f 50f
12:04pm 1ft 4s 4 7 mph 1022.2mb 50f 51f
11:04am 1.3ft 4s 4 4 mph 1022.7mb 50f 51f
10:04am 1.3ft 4s 2 2 mph 1022.6mb 50f 51f
9:04am 1.6ft 4s 2 2 mph 1022.8mb 50f 50f
8:04am 1.6ft 4s 2 2 mph 1023mb 49f 51f
6:04am 1.6ft 4s 11 16 mph 1022.7mb 49f 52f
5:04am 1.3ft 4s 11 11 mph 1022.4mb 49f 51f
4:04am 1.3ft 4s 4 7 mph 1022.2mb 49f 50f
3:04am 1.3ft 4s 4 4 mph 1022.5mb 49f 50f
2:04am 1.3ft 4s 2 4 mph 1023.2mb 50f 50f
1:04am 1ft 4s 7 7 mph 1023.3mb 51f 51f
12:04am 1.3ft 4s 7 7 mph 1023.5mb 51f 51f
Sun 05/21 11:04pm 1.3ft 4s 4 4 mph 1023.7mb 51f 51f
10:04pm 1.6ft 4s 4 7 mph 1024.6mb 51f 51f
9:04pm 1.3ft 4s 4 7 mph 1024.8mb 50f 51f
8:04pm 1.6ft 4s 9 9 mph 1024.8mb 50f 52f
7:04pm 1.6ft 3s 11 11 mph 1024.6mb 51f 52f
6:04pm 2ft 3s 11 13 mph 1024.5mb 50f 52f
5:04pm 1.3ft 3s 11 13 mph 1024.6mb 51f 53f
4:04pm 1.3ft 3s 13 16 mph 1025.1mb 52f 53f
3:04pm 1ft 2s 13 16 mph 1026.1mb 52f 53f
2:04pm 0.7ft  -  11 13 mph 1026.5mb 51f 54f
1:04pm 1ft 8s 9 9 mph 1027mb 51f 53f
12:04pm 1ft 11s 11 11 mph 1028.1mb 51f 52f
11:04am 1ft 8s 7 9 mph 1028.6mb 51f 52f
10:04am 1ft 6s 4 4 mph 1028.7mb 50f 51f
9:04am 1ft 6s 4 4 mph 1028.9mb 49f 51f
8:04am 1ft 6s 7 9 mph 1029.1mb 49f 49f
7:04am 1ft 6s 9 11 mph 1028.9mb 49f 49f
6:04am 1ft 6s 9 11 mph 1028.6mb 49f 50f
5:04am 1ft 6s 7 9 mph 1028mb 49f 49f
4:04am 1ft 8s 7 9 mph 1027.8mb 48f 49f
3:04am 1ft 8s 4 7 mph 1028mb 49f 49f
2:04am 1ft 8s 2 4 mph 1027.8mb 49f 50f
1:04am 1ft 8s 4 4 mph 1027.4mb 49f 50f
12:04am 1ft 8s 4 4 mph 1027mb 49f 49f
Sat 05/20 11:04pm 1.3ft 8s 4 7 mph 1026.7mb 49f 49f
10:04pm 1.3ft 8s 4 7 mph 1026.3mb 50f 49f
9:04pm 1ft 3s 4 7 mph 1025.9mb 49f 49f
8:04pm 1.3ft 8s 4 7 mph 1024.8mb 49f 50f
7:04pm 1.6ft 6s 4 4 mph 1024.5mb 50f 52f
6:04pm 1.6ft 6s 9 9 mph 1024mb 50f 51f
5:04pm 1ft 3s 11 13 mph 1024mb 49f 51f
4:04pm 1.3ft 8s 9 11 mph 1024mb 49f 51f
3:04pm 1ft 6s 11 13 mph 1024.2mb 50f 52f
2:04pm 1.3ft 8s 9 13 mph 1024.4mb 50f 51f
1:04pm 1.3ft 8s 2 4 mph 1024.6mb 49f 54f
12:04pm 1.3ft 8s 4 4 mph 1024.9mb 49f 52f
11:04am 1.3ft 6s 9 9 mph 1024.8mb 48f 50f
10:04am 1ft 3s 7 9 mph 1024.9mb 48f 50f
9:04am 1.6ft 3s 9 11 mph 1024.8mb 47f 49f
8:04am 2.5ft 3s 13 18 mph 1024.1mb 47f 49f
7:04am 2.5ft 6s 16 18 mph 1023.3mb 48f 49f
6:04am 2.5ft 3s 11 13 mph 1022.5mb 48f 49f
5:04am 2.5ft 6s 16 20 mph 1021.1mb 48f 50f
4:04am 2ft 6s 11 13 mph 1020.4mb 48f 50f
3:04am 2ft 6s 11 11 mph 1019.7mb 48f 50f
2:04am 2ft 8s 13 16 mph 1019.7mb 48f 51f
1:04am 2ft 6s 13 13 mph 1018.7mb 48f 52f
12:04am 2.5ft 6s 13 16 mph 1018.1mb 48f 51f
Fri 05/19 11:04pm 2ft 3s 11 13 mph 1017.1mb 48f 52f